Time;durP1;ratioP1;P1;durP2;ratioP2;P2;SDS_P1;SDS_P2;PMS_P1;PMS_P2;Temp;Humidity;BMP_temperature;BMP_pressure;BME280_temperature;BME280_humidity;BME280_pressure;Samples;Min_cycle;Max_cycle;Signal;HPM_P1;HPM_P2
2022/09/01 00:01:25;;;;;;;7.05;6.45;;;;;;;15.45;68.14;101184.59;4983397;28;19960;-76
2022/09/01 00:03:53;;;;;;;6.30;5.80;;;;;;;15.50;67.98;101183.63;4984296;28;20083;-75
2022/09/01 00:06:21;;;;;;;6.53;5.97;;;;;;;15.50;68.37;101185.41;4985689;28;20058;-76
2022/09/01 00:08:54;;;;;;;6.65;6.13;;;;;;;15.53;68.34;101177.38;4978686;28;20122;-76
2022/09/01 00:11:22;;;;;;;6.70;6.20;;;;;;;15.57;68.50;101187.06;4983596;28;20048;-76
2022/09/01 00:13:49;;;;;;;6.32;5.82;;;;;;;15.50;68.99;101182.75;4984820;28;20105;-76
2022/09/01 00:16:16;;;;;;;6.93;6.18;;;;;;;15.44;69.57;101183.72;4981859;28;20041;-76
2022/09/01 00:18:49;;;;;;;6.60;6.07;;;;;;;15.43;69.50;101186.41;4985061;28;20566;-76
2022/09/01 00:21:17;;;;;;;6.93;6.38;;;;;;;15.43;69.43;101184.66;4983756;28;20046;-75
2022/09/01 00:23:42;;;;;;;6.85;6.25;;;;;;;15.43;69.11;101186.41;4982419;28;20493;-76
2022/09/01 00:26:07;;;;;;;6.47;5.82;;;;;;;15.42;68.87;101187.31;4985132;28;20053;-75
2022/09/01 00:28:35;;;;;;;6.85;6.30;;;;;;;15.42;69.13;101189.97;4982045;28;20070;-76
2022/09/01 00:31:00;;;;;;;8.77;5.97;;;;;;;15.41;68.50;101188.22;4984184;28;20034;-75
2022/09/01 00:33:26;;;;;;;7.10;6.60;;;;;;;15.41;68.76;101193.56;4983201;28;20039;-76
2022/09/01 00:35:51;;;;;;;6.60;6.03;;;;;;;15.35;68.95;101197.16;4982722;28;20134;-75
2022/09/01 00:38:16;;;;;;;6.82;6.32;;;;;;;15.24;69.56;101189.34;4961665;28;20023;-75
2022/09/01 00:40:42;;;;;;;6.78;6.28;;;;;;;15.20;69.14;101195.63;4980684;28;20042;-75
2022/09/01 00:43:19;;;;;;;6.90;6.38;;;;;;;15.17;69.00;101189.47;4980453;28;20500;-76
2022/09/01 00:45:44;;;;;;;6.82;5.65;;;;;;;15.14;69.11;101198.34;4978220;28;20035;-75
2022/09/01 00:48:09;;;;;;;6.55;6.00;;;;;;;15.09;69.27;101200.19;4981213;28;20416;-76
2022/09/01 00:50:37;;;;;;;6.32;5.82;;;;;;;15.07;69.41;101199.38;4964869;28;20057;-76
2022/09/01 00:53:04;;;;;;;7.72;6.95;;;;;;;15.05;69.40;101198.50;4982052;28;20069;-76
2022/09/01 00:55:33;;;;;;;7.13;6.50;;;;;;;15.01;69.17;101196.78;4983264;28;20125;-76
2022/09/01 00:58:01;;;;;;;7.63;7.03;;;;;;;14.96;69.53;101194.19;4980968;28;20050;-75
2022/09/01 01:00:30;;;;;;;7.60;7.00;;;;;;;14.93;69.92;101191.56;4980094;28;20035;-76
2022/09/01 01:02:56;;;;;;;6.45;5.85;;;;;;;14.84;70.44;101189.03;4962176;28;20031;-76
2022/09/01 01:05:31;;;;;;;6.65;6.13;;;;;;;14.77;70.44;101193.53;4982324;28;20489;-76
2022/09/01 01:08:00;;;;;;;6.63;6.10;;;;;;;14.73;70.50;101186.53;4981537;28;20113;-76
2022/09/01 01:10:31;;;;;;;7.03;6.43;;;;;;;14.69;70.40;101184.78;4977853;28;20118;-75
2022/09/01 01:12:59;;;;;;;7.10;6.43;;;;;;;14.66;70.89;101184.84;4981459;28;20030;-76
2022/09/01 01:15:25;;;;;;;6.57;6.07;;;;;;;14.60;70.90;101179.63;4967145;28;20062;-76
2022/09/01 01:17:50;;;;;;;7.30;6.68;;;;;;;14.57;71.47;101183.19;4981123;28;20209;-76
2022/09/01 01:23:20;;;;;;;6.72;5.82;;;;;;;14.45;71.96;101185.94;4980615;28;20058;-76
2022/09/01 01:25:56;;;;;;;6.35;5.68;;;;;;;14.41;71.94;101182.47;4980549;28;20034;-75
2022/09/01 01:28:34;;;;;;;6.57;6.05;;;;;;;14.37;72.00;101188.69;4962367;28;20039;-76
2022/09/01 01:31:05;;;;;;;7.13;6.47;;;;;;;14.30;72.56;101183.47;4979707;28;20034;-76
2022/09/01 01:33:35;;;;;;;6.47;5.97;;;;;;;14.19;73.25;101183.56;4990892;28;20062;-76
2022/09/01 01:36:02;;;;;;;7.43;6.22;;;;;;;14.16;72.98;101186.28;4980766;28;20121;-75
2022/09/01 01:38:28;;;;;;;6.53;6.03;;;;;;;14.15;73.60;101189.84;4966866;28;20034;-76
2022/09/01 01:40:55;;;;;;;5.95;5.38;;;;;;;14.11;73.94;101188.09;4979448;28;20027;-76
2022/09/01 01:43:22;;;;;;;6.72;6.13;;;;;;;14.09;73.72;101185.44;4982276;28;20073;-76
2022/09/01 01:45:51;;;;;;;6.78;6.28;;;;;;;14.06;74.06;101188.13;4980287;28;20023;-76
2022/09/01 01:48:22;;;;;;;6.15;5.75;;;;;;;14.07;74.13;101192.56;4980492;28;20057;-76
2022/09/01 01:50:49;;;;;;;6.53;5.93;;;;;;;14.07;74.43;101189.00;4982537;28;20053;-76
2022/09/01 01:53:18;;;;;;;5.97;5.53;;;;;;;14.03;74.73;101189.03;4975076;28;20387;-75
2022/09/01 01:55:48;;;;;;;6.20;5.70;;;;;;;14.01;74.82;101188.16;4979902;28;20037;-76
2022/09/01 01:58:15;;;;;;;6.25;5.70;;;;;;;13.99;75.17;101191.72;4981853;28;20492;-76
2022/09/01 02:00:43;;;;;;;7.43;5.85;;;;;;;13.97;75.38;101188.25;4979171;28;20117;-75
2022/09/01 02:03:11;;;;;;;6.40;5.65;;;;;;;13.96;75.52;101190.03;4978684;28;20038;-76
2022/09/01 02:05:38;;;;;;;7.20;6.50;;;;;;;13.99;75.72;101187.34;4979827;28;20481;-76
2022/09/01 02:08:08;;;;;;;7.43;5.28;;;;;;;14.06;75.35;101182.81;4981351;28;20042;-76
2022/09/01 02:10:40;;;;;;;8.82;5.97;;;;;;;14.12;75.47;101189.84;4979175;28;20050;-76
2022/09/01 02:13:07;;;;;;;10.02;5.97;;;;;;;14.19;75.00;101191.53;4981041;28;20031;-76
2022/09/01 02:15:42;;;;;;;6.85;6.30;;;;;;;14.20;75.15;101190.63;4983292;28;20509;-76
2022/09/01 02:18:07;;;;;;;6.50;5.90;;;;;;;14.23;74.42;101180.00;4983560;28;20030;-76
2022/09/01 02:20:32;;;;;;;7.15;6.45;;;;;;;14.26;74.55;101185.28;4985756;28;20042;-75
2022/09/01 02:23:08;;;;;;;9.68;6.05;;;;;;;14.28;74.28;101183.50;4983630;28;20105;-76
2022/09/01 02:25:34;;;;;;;7.93;5.45;;;;;;;14.29;74.46;101179.06;4973386;28;20058;-76
2022/09/01 02:28:02;;;;;;;6.72;6.13;;;;;;;14.32;74.07;101179.03;4987459;28;20485;-76
2022/09/01 02:30:31;;;;;;;6.43;5.85;;;;;;;14.32;73.96;101182.53;4983920;28;20034;-76
2022/09/01 02:32:58;;;;;;;9.88;6.25;;;;;;;14.34;74.49;101182.53;4984111;28;20045;-76
2022/09/01 02:35:30;;;;;;;6.38;5.88;;;;;;;14.33;73.88;101179.00;4986619;28;20034;-75
2022/09/01 02:37:57;;;;;;;6.15;5.65;;;;;;;14.34;73.85;101180.75;4979757;28;20062;-75
2022/09/01 02:40:23;;;;;;;7.18;6.53;;;;;;;14.32;73.89;101177.22;4984862;28;20034;-75
2022/09/01 02:42:51;;;;;;;7.00;6.38;;;;;;;14.33;73.67;101180.75;4965445;28;20034;-76
2022/09/01 02:45:18;;;;;;;7.43;6.28;;;;;;;14.33;74.06;101179.00;4985381;28;20022;-76
2022/09/01 02:47:45;;;;;;;6.00;5.50;;;;;;;14.32;73.86;101173.72;4982552;28;20031;-76
2022/09/01 02:50:18;;;;;;;6.57;5.97;;;;;;;14.29;73.97;101176.41;4985281;28;20467;-76
2022/09/01 02:52:47;;;;;;;5.82;5.43;;;;;;;14.30;74.26;101172.84;4985631;28;20058;-75
2022/09/01 02:55:20;;;;;;;6.97;6.30;;;;;;;14.33;73.94;101176.34;4982432;28;20031;-76
2022/09/01 02:57:48;;;;;;;6.03;5.53;;;;;;;14.35;73.73;101161.25;4965765;28;20031;-76
2022/09/01 03:00:32;;;;;;;7.00;6.40;;;;;;;14.35;73.73;101168.34;4983777;28;20042;-76
2022/09/01 03:03:00;;;;;;;7.70;6.10;;;;;;;14.29;74.20;101165.78;4983254;28;20506;-75
2022/09/01 03:05:28;;;;;;;6.60;5.38;;;;;;;14.20;74.38;101167.66;4978805;28;20038;-76
2022/09/01 03:07:57;;;;;;;8.10;5.53;;;;;;;14.16;74.42;101170.34;4976850;28;20050;-76
2022/09/01 03:10:34;;;;;;;6.32;5.82;;;;;;;14.14;74.70;101172.13;4967960;28;20041;-76
2022/09/01 03:13:07;;;;;;;6.65;5.80;;;;;;;14.14;75.10;101164.16;4982735;28;20045;-75
2022/09/01 03:15:35;;;;;;;7.55;6.53;;;;;;;14.16;75.05;101173.00;4966113;28;20066;-76
2022/09/01 03:18:02;;;;;;;9.15;6.15;;;;;;;14.18;74.89;101172.09;4983480;28;20030;-76
2022/09/01 03:20:30;;;;;;;6.78;6.18;;;;;;;14.19;75.00;101167.66;4979061;28;20038;-76
2022/09/01 03:22:56;;;;;;;5.78;5.38;;;;;;;14.21;74.90;101166.75;4984611;28;20481;-76
2022/09/01 03:25:24;;;;;;;6.22;5.72;;;;;;;14.27;74.74;101160.47;4981748;28;20062;-76
2022/09/01 03:27:51;;;;;;;6.75;6.20;;;;;;;14.29;74.85;101166.66;4983569;28;20042;-76
2022/09/01 03:30:17;;;;;;;5.95;5.05;;;;;;;14.32;74.46;101168.41;4983213;28;20405;-76
2022/09/01 03:32:43;;;;;;;9.95;5.50;;;;;;;14.35;74.38;101166.56;4982612;28;20034;-76
2022/09/01 03:35:10;;;;;;;6.22;5.63;;;;;;;14.41;74.37;101168.31;4983664;28;20081;-76
2022/09/01 03:37:35;;;;;;;6.05;5.38;;;;;;;14.40;74.37;101164.75;4962567;28;20482;-76
2022/09/01 03:40:04;;;;;;;6.10;5.60;;;;;;;14.42;74.20;101160.31;4984515;28;20033;-76
2022/09/01 03:42:31;;;;;;;8.40;6.03;;;;;;;14.43;74.28;101155.88;4982856;28;20126;-76
2022/09/01 03:44:56;;;;;;;6.47;5.88;;;;;;;14.42;74.27;101159.44;4982470;28;20458;-76
2022/09/01 03:47:23;;;;;;;6.70;5.55;;;;;;;14.45;74.14;101160.25;4984318;28;20030;-76
2022/09/01 03:49:50;;;;;;;6.85;5.82;;;;;;;14.48;74.24;101165.53;4981424;28;20448;-76
2022/09/01 03:52:16;;;;;;;7.07;5.82;;;;;;;14.53;73.74;101162.84;4983884;28;20064;-76
2022/09/01 03:54:44;;;;;;;9.60;6.15;;;;;;;14.55;73.75;101157.53;4983869;28;20114;-76
2022/09/01 03:57:10;;;;;;;5.97;5.57;;;;;;;14.59;73.38;101159.25;4979771;28;20501;-76
2022/09/01 03:59:44;;;;;;;8.23;6.00;;;;;;;14.61;73.61;101162.75;4981195;28;20061;-77
2022/09/01 04:02:10;;;;;;;7.22;6.15;;;;;;;14.63;73.33;101161.84;4979166;28;20527;-76
2022/09/01 04:04:35;;;;;;;6.03;5.53;;;;;;;14.66;73.10;101158.28;4965646;28;20035;-76
2022/09/01 04:07:01;;;;;;;6.45;5.93;;;;;;;14.62;73.30;101161.88;4983356;28;20452;-76
2022/09/01 04:09:28;;;;;;;6.18;5.57;;;;;;;14.57;73.52;101161.94;4965454;28;20477;-76
2022/09/01 04:11:53;;;;;;;5.68;5.18;;;;;;;14.58;73.50;101161.03;4975576;28;20041;-76
2022/09/01 04:14:20;;;;;;;5.93;5.43;;;;;;;14.56;73.59;101161.94;4984486;28;20061;-77
2022/09/01 04:19:37;;;;;;;6.35;5.63;;;;;;;14.48;74.06;101165.53;4978167;28;20031;-76
2022/09/01 04:22:03;;;;;;;6.22;5.55;;;;;;;14.45;74.33;101164.69;4982421;28;20053;-77
2022/09/01 04:24:41;;;;;;;8.57;6.60;;;;;;;14.48;74.29;101160.22;4987733;28;20392;-76
2022/09/01 04:27:07;;;;;;;9.63;7.65;;;;;;;14.50;74.42;101162.00;4950569;28;20482;-76
2022/09/01 04:29:33;;;;;;;11.55;10.50;;;;;;;14.50;74.10;101156.69;4982628;28;20037;-76
2022/09/01 04:32:04;;;;;;;7.15;6.45;;;;;;;14.53;74.12;101164.63;4979074;28;20512;-76
2022/09/01 04:34:36;;;;;;;6.43;5.82;;;;;;;14.51;74.14;101158.44;4954006;28;20042;-76
2022/09/01 04:37:11;;;;;;;6.72;6.13;;;;;;;14.50;74.49;101159.34;4979047;28;20035;-76
2022/09/01 04:40:22;;;;;;;7.05;6.45;;;;;;;14.43;75.38;101164.69;4977103;28;20176;-76
2022/09/01 04:42:48;;;;;;;5.97;5.47;;;;;;;14.45;75.09;101168.22;4974550;28;20038;-75
2022/09/01 04:45:14;;;;;;;5.93;5.43;;;;;;;14.47;74.93;101171.75;4982166;28;20057;-77
2022/09/01 04:47:59;;;;;;;7.05;6.55;;;;;;;14.50;75.10;101169.97;4965007;28;20027;-76
2022/09/01 04:50:29;;;;;;;;;;;;;;;14.49;75.57;101169.09;4975072;28;20108;-77
2022/09/01 04:53:17;;;;;;;7.70;5.93;;;;;;;14.58;74.62;101171.66;4985918;28;19979;-76
2022/09/01 04:55:46;;;;;;;6.07;5.68;;;;;;;14.68;74.51;101175.06;4977185;28;20034;-76
2022/09/01 04:58:16;;;;;;;10.70;9.52;;;;;;;14.71;74.30;101172.38;4954010;28;20417;-76
2022/09/01 05:00:44;;;;;;;8.13;7.43;;;;;;;14.72;74.63;101179.44;4980897;28;20031;-76
2022/09/01 05:03:10;;;;;;;8.30;5.82;;;;;;;14.78;74.18;101178.50;4966827;28;20035;-76
2022/09/01 05:05:52;;;;;;;5.85;5.35;;;;;;;14.82;74.24;101186.38;4981111;28;20026;-76
2022/09/01 05:08:21;;;;;;;6.43;5.82;;;;;;;14.83;74.13;101182.84;4960948;28;20125;-76
2022/09/01 05:10:54;;;;;;;8.73;5.68;;;;;;;14.81;74.65;101182.00;4965711;28;20035;-76
2022/09/01 05:13:31;;;;;;;6.30;5.80;;;;;;;14.86;74.21;101185.47;4983129;28;20566;-76
2022/09/01 05:16:03;;;;;;;6.07;5.57;;;;;;;14.89;74.33;101182.75;4976065;28;20047;-76
2022/09/01 05:18:28;;;;;;;6.88;6.28;;;;;;;14.93;74.02;101183.59;4981431;28;20134;-76
2022/09/01 05:20:56;;;;;;;6.30;5.70;;;;;;;14.96;74.17;101182.66;4982320;28;20026;-76
2022/09/01 05:23:22;;;;;;;6.60;5.97;;;;;;;15.03;73.80;101182.56;4976370;28;20034;-76
2022/09/01 05:25:53;;;;;;;8.85;6.35;;;;;;;15.10;73.79;101180.72;4974925;28;20550;-77
2022/09/01 05:28:24;;;;;;;6.03;5.43;;;;;;;15.18;73.28;101185.91;4969758;28;20034;-76
2022/09/01 05:30:52;;;;;;;7.15;6.18;;;;;;;15.22;73.26;101180.53;4982417;28;20099;-76
2022/09/01 05:33:20;;;;;;;7.10;5.55;;;;;;;15.24;73.08;101184.03;4979696;28;20505;-76
2022/09/01 05:35:54;;;;;;;6.38;5.78;;;;;;;15.28;73.19;101180.44;4967365;28;20027;-76
2022/09/01 05:38:21;;;;;;;6.60;5.90;;;;;;;15.26;73.02;101181.34;4974759;28;20062;-76
2022/09/01 05:41:00;;;;;;;6.20;5.68;;;;;;;15.26;73.13;101192.00;4978451;28;20035;-76
2022/09/01 05:43:27;;;;;;;6.40;5.80;;;;;;;15.24;73.29;101192.00;4979731;28;20058;-76
2022/09/01 05:45:54;;;;;;;6.65;5.60;;;;;;;15.31;73.28;101187.50;4979557;28;20026;-77
2022/09/01 05:48:20;;;;;;;6.40;5.90;;;;;;;15.34;73.30;101190.09;4959694;28;20039;-76
2022/09/01 05:50:48;;;;;;;6.38;5.88;;;;;;;15.41;72.69;101190.91;4981345;28;20110;-77
2022/09/01 05:53:16;;;;;;;6.40;5.85;;;;;;;15.38;72.56;101199.81;4964980;28;20490;-76
2022/09/01 05:55:47;;;;;;;6.65;6.13;;;;;;;15.44;72.34;101198.81;4980646;28;20042;-77
2022/09/01 05:58:15;;;;;;;7.05;6.35;;;;;;;15.39;73.28;101196.22;4982870;28;20038;-77
2022/09/01 06:00:42;;;;;;;10.32;5.95;;;;;;;15.39;72.92;101198.00;4980445;28;20029;-76
2022/09/01 06:03:10;;;;;;;6.18;5.65;;;;;;;15.44;72.66;101193.50;4981539;28;20030;-76
2022/09/01 06:05:39;;;;;;;6.20;5.70;;;;;;;15.54;72.43;101195.13;4976945;28;20494;-76
2022/09/01 06:08:09;;;;;;;6.13;5.72;;;;;;;15.64;71.94;101198.47;4973032;28;20027;-77
2022/09/01 06:10:38;;;;;;;6.85;6.25;;;;;;;15.65;71.71;101201.13;4978693;28;20038;-76
2022/09/01 06:13:05;;;;;;;5.93;5.43;;;;;;;15.67;71.50;101202.00;4980294;28;20043;-76
2022/09/01 06:15:39;;;;;;;5.72;5.20;;;;;;;15.69;71.68;101194.91;4980009;28;20489;-76
2022/09/01 06:18:06;;;;;;;6.05;5.60;;;;;;;15.66;71.23;101202.88;4969517;28;20121;-77
2022/09/01 06:20:44;;;;;;;6.93;6.15;;;;;;;15.73;71.36;101195.72;4976383;28;20558;-76
2022/09/01 06:23:14;;;;;;;7.25;6.30;;;;;;;15.80;71.13;101200.03;4977046;28;20591;-76
2022/09/01 06:25:45;;;;;;;6.97;6.25;;;;;;;15.83;70.49;101205.31;4977788;28;20031;-77
2022/09/01 06:28:15;;;;;;;7.18;6.57;;;;;;;15.86;70.57;101201.72;4980735;28;20034;-76
2022/09/01 06:30:43;;;;;;;6.70;6.18;;;;;;;15.94;70.54;101202.44;4976957;28;20043;-76
2022/09/01 06:33:11;;;;;;;6.80;6.28;;;;;;;16.06;70.24;101196.00;4964442;28;20035;-76
2022/09/01 06:35:40;;;;;;;6.50;5.68;;;;;;;16.20;69.69;101200.19;4979455;28;20027;-76
2022/09/01 06:38:08;;;;;;;6.78;6.18;;;;;;;16.28;69.45;101199.19;4979677;28;20034;-76
2022/09/01 06:40:40;;;;;;;6.95;6.05;;;;;;;16.41;69.15;101203.34;4979867;28;20126;-76
2022/09/01 06:43:06;;;;;;;8.73;5.65;;;;;;;16.52;67.96;101211.13;4982594;28;20511;-76
2022/09/01 06:45:39;;;;;;;6.72;6.22;;;;;;;16.68;68.04;101207.25;4980862;28;20023;-76
2022/09/01 06:48:05;;;;;;;;;;;;;;;16.68;67.67;101207.25;4980022;28;20093;-76
2022/09/01 06:50:30;;;;;;;6.93;6.38;;;;;;;16.80;67.23;101208.81;4982104;28;20439;-76
2022/09/01 06:53:12;;;;;;;7.15;6.43;;;;;;;16.93;66.96;101206.78;4979914;28;20026;-76
2022/09/01 06:55:40;;;;;;;7.47;6.88;;;;;;;17.13;66.54;101204.53;4978460;28;20041;-76
2022/09/01 06:58:08;;;;;;;7.70;6.78;;;;;;;17.21;65.96;101212.34;4981337;28;20416;-76
2022/09/01 07:00:40;;;;;;;8.15;6.88;;;;;;;17.23;65.56;101216.75;4980849;28;20030;-76
2022/09/01 07:03:08;;;;;;;6.93;6.43;;;;;;;17.35;65.67;101212.06;4980900;28;20062;-77
2022/09/01 07:05:42;;;;;;;8.10;6.93;;;;;;;17.52;65.53;101213.38;4984361;28;20150;-77
2022/09/01 07:08:12;;;;;;;6.35;5.95;;;;;;;17.76;64.44;101205.69;4984604;28;20037;-77
2022/09/01 07:10:56;;;;;;;6.85;6.15;;;;;;;17.88;64.06;101208.09;4983532;28;20054;-77
2022/09/01 07:13:22;;;;;;;7.45;6.15;;;;;;;18.00;64.28;101208.69;4982673;28;20121;-77
2022/09/01 07:15:53;;;;;;;7.25;6.65;;;;;;;18.01;62.87;101207.78;4963020;28;20122;-77
2022/09/01 07:18:24;;;;;;;7.22;6.72;;;;;;;17.98;62.99;101208.75;4969479;28;20042;-77
2022/09/01 07:20:51;;;;;;;10.20;6.28;;;;;;;18.01;62.63;101214.00;4978705;28;20428;-77
2022/09/01 07:23:19;;;;;;;7.28;6.25;;;;;;;17.93;62.61;101213.31;4985047;28;20165;-77
2022/09/01 07:25:47;;;;;;;7.47;6.88;;;;;;;18.02;62.63;101210.41;4978373;28;20034;-77
2022/09/01 07:28:31;;;;;;;7.28;6.57;;;;;;;17.96;62.37;101207.91;4981177;28;20571;-77
2022/09/01 07:30:57;;;;;;;8.57;6.28;;;;;;;17.85;62.62;101208.19;4983138;28;20038;-77
2022/09/01 07:33:26;;;;;;;8.30;7.38;;;;;;;17.86;63.29;101217.06;4981787;28;20046;-77
2022/09/01 07:35:54;;;;;;;9.98;8.13;;;;;;;17.94;62.61;101215.94;4983975;28;20902;-77
2022/09/01 07:38:21;;;;;;;9.77;7.03;;;;;;;18.09;63.20;101216.47;4962942;28;20035;-77
2022/09/01 07:40:47;;;;;;;7.63;6.80;;;;;;;18.24;62.45;101218.72;4980244;28;20050;-77
2022/09/01 07:43:50;;;;;;;9.80;7.15;;;;;;;18.38;62.12;101229.03;4980403;28;20038;-77
2022/09/01 07:46:33;;;;;;;8.63;7.63;;;;;;;18.46;61.31;101215.47;4981380;28;20088;-77
2022/09/01 07:49:00;;;;;;;9.07;8.27;;;;;;;18.50;61.07;101223.38;4982629;28;20030;-77
2022/09/01 07:51:27;;;;;;;10.10;8.07;;;;;;;18.58;60.90;101218.69;4980930;28;20620;-77
2022/09/01 07:53:53;;;;;;;8.98;7.15;;;;;;;18.67;60.49;101216.66;4980939;28;20129;-76
2022/09/01 07:56:21;;;;;;;7.53;6.88;;;;;;;18.70;60.33;101220.09;4965671;28;20062;-77
2022/09/01 07:58:49;;;;;;;7.68;6.55;;;;;;;18.80;59.74;101213.59;4983968;28;20548;-77
2022/09/01 08:01:18;;;;;;;8.38;7.00;;;;;;;18.93;59.45;101219.47;4982947;28;20059;-77
2022/09/01 08:03:47;;;;;;;7.88;7.28;;;;;;;18.98;58.85;101216.66;4981815;28;20141;-77
2022/09/01 08:06:17;;;;;;;6.97;6.47;;;;;;;19.00;58.94;101220.19;4993707;28;20045;-76
2022/09/01 08:08:44;;;;;;;7.63;6.93;;;;;;;19.10;58.88;101220.75;4983590;28;20035;-77
2022/09/01 08:11:16;;;;;;;6.85;6.25;;;;;;;19.16;59.10;101221.44;4979180;28;20076;-77
2022/09/01 08:13:42;;;;;;;9.52;6.32;;;;;;;19.14;58.77;101222.44;4980487;28;20026;-77
2022/09/01 08:16:09;;;;;;;9.02;7.57;;;;;;;19.16;58.33;101220.59;4954482;28;20424;-77
2022/09/01 08:18:35;;;;;;;9.85;8.73;;;;;;;19.20;58.31;101223.13;4977128;28;20086;-77
2022/09/01 08:21:08;;;;;;;7.72;7.13;;;;;;;19.31;58.20;101214.75;4971267;28;20591;-76
2022/09/01 08:23:55;;;;;;;7.22;6.63;;;;;;;19.27;57.96;101230.00;4970566;28;20026;-77
2022/09/01 08:26:25;;;;;;;7.18;6.18;;;;;;;19.25;58.23;101222.97;4970443;28;20065;-77
2022/09/01 08:28:50;;;;;;;8.50;7.25;;;;;;;19.30;58.30;101217.47;4980266;28;20034;-77
2022/09/01 08:31:19;;;;;;;8.25;7.43;;;;;;;19.34;58.15;101216.47;4983141;28;20038;-77
2022/09/01 08:33:47;;;;;;;7.10;6.50;;;;;;;19.24;57.90;101208.72;4968588;28;20038;-77
2022/09/01 08:36:14;;;;;;;7.35;6.72;;;;;;;19.26;57.99;101217.56;4981569;28;20030;-77
2022/09/01 08:38:41;;;;;;;8.48;6.80;;;;;;;19.36;57.22;101209.22;4954676;28;20429;-77
2022/09/01 08:41:25;;;;;;;7.78;7.00;;;;;;;19.34;56.91;101211.13;4978869;28;20502;-77
2022/09/01 08:44:00;;;;;;;9.10;7.75;;;;;;;19.32;57.88;101211.16;4966711;28;20039;-77
2022/09/01 08:46:34;;;;;;;8.95;8.02;;;;;;;19.33;56.95;101210.22;4983430;28;20027;-78
2022/09/01 08:49:17;;;;;;;7.80;7.20;;;;;;;19.34;57.34;101208.44;4984347;28;20067;-77
2022/09/01 08:52:20;;;;;;;8.10;7.32;;;;;;;19.40;56.64;101208.22;4965035;28;20081;-77
2022/09/01 08:54:52;;;;;;;8.27;6.95;;;;;;;19.48;56.90;101209.72;4959993;28;20035;-77
2022/09/01 08:57:32;;;;;;;8.63;7.32;;;;;;;19.44;56.44;101208.09;4981641;28;20026;-76
2022/09/01 09:00:19;;;;;;;9.23;8.43;;;;;;;19.58;57.36;101207.63;4979620;28;20061;-77
2022/09/01 09:03:05;;;;;;;8.82;7.95;;;;;;;19.70;56.76;101214.41;4984417;28;20066;-77
2022/09/01 09:05:56;;;;;;;9.00;8.18;;;;;;;19.92;55.81;101211.91;4980172;28;20054;-77
2022/09/01 09:08:50;;;;;;;7.65;7.05;;;;;;;20.01;55.07;101216.91;4978006;28;20045;-77
2022/09/01 09:11:52;;;;;;;8.60;7.90;;;;;;;19.99;55.75;101216.13;4980451;28;20030;-77
2022/09/01 09:14:27;;;;;;;10.20;7.45;;;;;;;20.14;54.77;101212.88;4984235;28;20409;-77
2022/09/01 09:16:54;;;;;;;7.65;6.95;;;;;;;20.10;54.75;101208.56;4979770;28;20502;-77
2022/09/01 09:19:36;;;;;;;10.27;7.80;;;;;;;20.18;54.68;101205.63;4978342;28;20038;-77
2022/09/01 09:22:09;;;;;;;9.27;8.48;;;;;;;20.41;54.29;101218.22;4982513;28;20402;-77
2022/09/01 09:24:54;;;;;;;8.48;7.68;;;;;;;20.55;53.74;101209.69;4982582;28;20031;-77
2022/09/01 09:27:25;;;;;;;8.07;7.30;;;;;;;20.46;53.24;101208.22;4999674;23;20054;-79
2022/09/01 09:29:59;;;;;;;8.27;7.57;;;;;;;20.52;53.57;101202.59;4991565;28;20038;-79
2022/09/01 09:32:44;;;;;;;9.43;8.65;;;;;;;20.73;53.42;101208.13;4990572;28;20042;-78
2022/09/01 09:35:32;;;;;;;10.48;8.45;;;;;;;20.89;51.79;101201.25;4989459;28;20113;-79
2022/09/01 09:38:21;;;;;;;11.80;7.38;;;;;;;20.97;51.47;101203.63;4989762;28;20141;-79
2022/09/01 09:40:58;;;;;;;9.32;8.52;;;;;;;21.00;50.89;101204.38;4991682;28;20077;-79
2022/09/01 09:43:25;;;;;;;9.43;8.63;;;;;;;21.07;50.96;101198.81;4990470;28;20038;-78
2022/09/01 09:46:20;;;;;;;11.00;8.52;;;;;;;21.22;50.37;101193.69;4992947;28;20401;-78
2022/09/01 09:48:45;;;;;;;8.73;7.88;;;;;;;21.33;50.69;101192.41;4990699;28;20049;-77
2022/09/01 09:51:18;;;;;;;9.25;8.35;;;;;;;21.52;50.23;101197.91;4988851;28;20030;-78
2022/09/01 09:53:44;;;;;;;13.73;9.05;;;;;;;21.62;49.49;101192.09;4991818;28;20038;-78
2022/09/01 09:56:19;;;;;;;8.95;8.02;;;;;;;21.52;48.51;101195.22;4992138;28;20038;-79
2022/09/01 09:58:47;;;;;;;11.55;8.80;;;;;;;21.47;49.71;101189.16;4990283;28;20093;-79
2022/09/01 10:01:27;;;;;;;11.65;10.65;;;;;;;21.66;48.35;101192.81;4990217;28;20096;-78
2022/09/01 10:03:56;;;;;;;8.68;8.05;;;;;;;21.77;48.42;101184.31;4990404;28;20065;-79
2022/09/01 10:06:37;;;;;;;9.45;8.65;;;;;;;21.79;47.49;101180.63;4991162;28;20452;-80
2022/09/01 10:09:06;;;;;;;9.57;8.77;;;;;;;21.94;47.72;101189.00;4991358;28;20034;-78
2022/09/01 10:11:46;;;;;;;10.07;9.23;;;;;;;22.10;46.96;101182.00;4992830;28;20119;-80
2022/09/01 10:14:26;;;;;;;10.32;8.63;;;;;;;22.32;45.61;101176.56;4989446;28;20103;-79
2022/09/01 10:17:08;;;;;;;9.00;8.23;;;;;;;22.55;45.51;101186.28;4993404;28;20030;-79
2022/09/01 10:19:34;;;;;;;9.13;8.32;;;;;;;22.80;45.66;101182.47;5005095;28;20382;-80
2022/09/01 10:22:01;;;;;;;8.00;7.30;;;;;;;22.95;45.25;101181.72;4986846;28;20030;-79
2022/09/01 10:24:30;;;;;;;9.02;8.23;;;;;;;23.03;45.44;101176.91;4990166;28;20038;-78
2022/09/01 10:27:02;;;;;;;11.93;9.40;;;;;;;23.28;44.39;101175.72;4989711;28;20022;-80
2022/09/01 10:29:31;;;;;;;10.93;10.13;;;;;;;23.41;43.53;101171.47;4992421;28;20413;-80
2022/09/01 10:31:59;;;;;;;12.52;10.27;;;;;;;23.71;43.57;101166.38;4990528;28;20037;-80
2022/09/01 10:34:32;;;;;;;10.13;9.32;;;;;;;24.08;43.06;101161.81;4986142;28;20050;-76
2022/09/01 10:36:58;;;;;;;10.23;9.25;;;;;;;24.27;41.95;101164.38;4991071;28;20080;-78
2022/09/01 10:39:23;;;;;;;10.57;9.70;;;;;;;24.22;42.26;101163.75;4992467;28;20093;-77
2022/09/01 10:41:55;;;;;;;10.40;9.60;;;;;;;24.45;41.83;101158.03;4994021;28;20511;-77
2022/09/01 10:44:37;;;;;;;11.88;10.95;;;;;;;24.51;41.46;101153.25;4988246;28;20108;-76
2022/09/01 10:47:08;;;;;;;;;;;;;;;24.72;40.89;101152.06;4989801;28;20026;-80
2022/09/01 10:49:34;;;;;;;10.35;9.45;;;;;;;24.99;40.37;101154.19;4989422;28;19968;-80
2022/09/01 10:52:00;;;;;;;9.73;9.05;;;;;;;25.19;40.39;101151.25;4989320;28;20070;-77
2022/09/01 10:54:37;;;;;;;8.77;8.07;;;;;;;25.12;38.76;101148.00;4994101;28;20076;-77
2022/09/01 10:57:27;;;;;;;9.45;8.75;;;;;;;24.97;39.58;101142.59;4991342;28;20030;-77
2022/09/01 10:59:54;;;;;;;9.02;8.32;;;;;;;24.40;41.33;101146.59;4967050;28;20065;-77
2022/09/01 11:02:20;;;;;;;8.38;7.75;;;;;;;24.23;41.40;101158.31;4994155;28;20046;-76
2022/09/01 11:04:45;;;;;;;9.43;8.65;;;;;;;24.04;41.54;101158.38;4994894;28;20053;-76
2022/09/01 11:07:17;;;;;;;9.82;8.90;;;;;;;23.87;41.68;101165.59;4994743;28;20050;-76
2022/09/01 11:09:44;;;;;;;11.73;10.93;;;;;;;23.60;42.43;101158.81;5006487;28;20038;-76
2022/09/01 11:12:58;;;;;;;11.27;10.38;;;;;;;23.08;43.88;101165.91;4994501;28;20034;-76
2022/09/01 11:15:35;;;;;;;24.83;23.27;;;;;;;22.57;45.35;101168.25;4991612;28;20038;-76
2022/09/01 11:18:01;;;;;;;16.88;15.85;;;;;;;22.31;45.53;101164.06;4993180;28;20456;-76
2022/09/01 11:20:39;;;;;;;11.35;10.38;;;;;;;22.14;46.29;101174.66;4991266;28;20061;-76
2022/09/01 11:23:12;;;;;;;9.63;8.80;;;;;;;22.15;46.44;101171.06;4994306;28;20038;-77
2022/09/01 11:25:43;;;;;;;9.07;8.38;;;;;;;22.17;46.53;101177.25;4994688;28;20034;-77
2022/09/01 11:28:30;;;;;;;8.90;8.30;;;;;;;21.96;46.22;101173.69;4994541;28;20404;-76
2022/09/01 11:31:24;;;;;;;8.68;7.97;;;;;;;21.70;46.78;101174.78;4988394;28;20409;-76
2022/09/01 11:34:11;;;;;;;8.25;7.70;;;;;;;21.57;47.28;101177.13;4990655;28;20419;-75
2022/09/01 11:36:46;;;;;;;9.13;8.32;;;;;;;21.51;47.38;101170.19;4991708;28;20031;-77
2022/09/01 11:39:17;;;;;;;9.60;8.80;;;;;;;21.51;47.36;101171.97;4994518;28;20537;-76
2022/09/01 11:42:20;;;;;;;9.57;8.88;;;;;;;21.50;47.13;101175.63;4990839;28;20038;-75
2022/09/01 11:44:56;;;;;;;9.48;8.55;;;;;;;21.52;47.38;101179.97;4949735;29;20114;-76
2022/09/01 11:47:30;;;;;;;10.68;9.77;;;;;;;21.49;47.35;101177.44;4951474;28;20167;-77
2022/09/01 11:50:19;;;;;;;11.35;9.48;;;;;;;21.51;47.08;101171.97;4981046;28;20046;-76